Time;durP1;ratioP1;P1;durP2;ratioP2;P2;SDS_P1;SDS_P2;PMS_P1;PMS_P2;Temp;Humidity;BMP_temperature;BMP_pressure;BME280_temperature;BME280_humidity;BME280_pressure;Samples;Min_cycle;Max_cycle;Signal;HPM_P1;HPM_P2
2022/01/16 05:00:38;;;;;;;31.52;15.40;;;3.90;99.90;;;;;;5825635;23;20327;-71
2022/01/16 05:03:04;;;;;;;27.30;15.60;;;4.00;99.90;;;;;;4959146;28;20202;-70
2022/01/16 05:05:31;;;;;;;26.02;15.48;;;3.90;99.90;;;;;;4956160;28;20268;-69
2022/01/16 05:07:58;;;;;;;31.23;15.40;;;3.90;99.90;;;;;;4962616;28;20271;-69
2022/01/16 05:10:24;;;;;;;25.10;14.05;;;3.90;99.90;;;;;;4964418;28;20698;-70
2022/01/16 05:12:52;;;;;;;31.60;14.85;;;4.00;99.90;;;;;;4972837;28;20215;-69
2022/01/16 05:18:05;;;;;;;23.98;14.07;;;4.00;99.90;;;;;;4972705;28;20672;-70
2022/01/16 05:20:32;;;;;;;27.35;13.95;;;3.90;99.90;;;;;;4972464;28;20635;-69
2022/01/16 05:22:59;;;;;;;29.25;14.70;;;3.90;99.90;;;;;;4973155;28;20204;-70
2022/01/16 05:25:26;;;;;;;32.28;16.08;;;3.90;99.90;;;;;;4972573;28;20292;-69
2022/01/16 05:27:53;;;;;;;24.55;14.90;;;3.90;99.90;;;;;;4979743;23;20225;-68
2022/01/16 05:30:20;;;;;;;25.00;15.00;;;3.90;99.90;;;;;;4968251;28;21036;-70
2022/01/16 05:32:46;;;;;;;32.40;15.82;;;3.90;99.90;;;;;;4966787;28;20205;-70
2022/01/16 05:35:15;;;;;;;28.70;15.40;;;3.90;99.90;;;;;;4957269;28;20204;-68
2022/01/16 05:37:41;;;;;;;31.80;16.38;;;3.90;99.90;;;;;;4953937;28;20228;-69
2022/01/16 05:40:08;;;;;;;27.73;16.50;;;3.90;99.90;;;;;;4949364;28;20678;-69
2022/01/16 05:42:35;;;;;;;24.27;14.38;;;3.90;99.90;;;;;;4941483;29;20532;-69
2022/01/16 05:45:02;;;;;;;28.73;14.43;;;3.90;99.90;;;;;;4934309;29;20209;-69
2022/01/16 05:47:29;;;;;;;34.10;17.80;;;3.90;99.90;;;;;;4935616;29;20675;-69
2022/01/16 05:49:56;;;;;;;32.88;15.73;;;3.90;99.90;;;;;;4951642;28;20611;-69
2022/01/16 05:52:24;;;;;;;30.65;16.58;;;4.00;99.90;;;;;;4952944;28;20209;-69
2022/01/16 05:54:50;;;;;;;30.08;16.33;;;3.90;99.90;;;;;;4934481;29;20210;-69
2022/01/16 05:57:17;;;;;;;27.90;15.23;;;4.00;99.90;;;;;;4933768;29;20229;-69
2022/01/16 05:59:44;;;;;;;24.80;15.20;;;3.90;99.90;;;;;;4941919;28;20228;-69
2022/01/16 06:02:11;;;;;;;27.58;14.77;;;3.90;99.90;;;;;;4939751;28;20214;-69
2022/01/16 06:04:37;;;;;;;26.67;15.27;;;3.90;99.90;;;;;;4949134;29;20224;-70
2022/01/16 06:07:05;;;;;;;32.65;16.70;;;3.90;99.90;;;;;;4952945;28;20586;-69
2022/01/16 06:09:33;;;;;;;35.17;16.08;;;3.90;99.90;;;;;;4944976;28;20194;-71
2022/01/16 06:12:00;;;;;;;24.75;13.93;;;3.90;99.90;;;;;;4934777;29;20209;-69
2022/01/16 06:14:27;;;;;;;25.05;13.48;;;3.90;99.90;;;;;;4947810;29;20205;-69
2022/01/16 06:16:54;;;;;;;23.75;14.65;;;3.90;99.90;;;;;;4952461;28;20236;-69
2022/01/16 06:19:20;;;;;;;29.58;15.88;;;3.90;99.90;;;;;;4943588;28;20218;-69
2022/01/16 06:21:48;;;;;;;28.27;15.68;;;3.90;99.90;;;;;;4933628;29;20214;-70
2022/01/16 06:24:15;;;;;;;23.42;14.32;;;3.90;99.90;;;;;;4944583;29;20232;-69
2022/01/16 06:26:43;;;;;;;26.63;14.07;;;3.90;99.90;;;;;;4941613;28;20202;-70
2022/01/16 06:29:10;;;;;;;30.55;15.30;;;3.90;99.90;;;;;;4946641;28;20264;-70
2022/01/16 06:31:37;;;;;;;27.42;15.32;;;3.90;99.90;;;;;;4948957;28;20206;-70
2022/01/16 06:34:06;;;;;;;31.45;13.60;;;3.90;99.90;;;;;;4942612;29;20587;-71
2022/01/16 06:36:33;;;;;;;27.77;14.57;;;3.90;99.90;;;;;;4951857;28;20295;-70
2022/01/16 06:39:00;;;;;;;28.33;14.20;;;3.90;99.90;;;;;;4940723;28;20225;-70
2022/01/16 06:41:27;;;;;;;32.88;14.63;;;4.00;99.90;;;;;;4944593;28;20236;-69
2022/01/16 06:43:55;;;;;;;30.15;15.35;;;4.00;99.90;;;;;;4952586;28;20790;-69
2022/01/16 06:46:22;;;;;;;27.25;14.43;;;4.00;99.90;;;;;;4933038;29;20823;-71
2022/01/16 06:48:49;;;;;;;24.88;13.27;;;4.00;99.90;;;;;;4948735;28;20229;-69
2022/01/16 06:51:18;;;;;;;30.75;14.00;;;4.00;99.90;;;;;;4952078;28;20248;-69
2022/01/16 06:53:45;;;;;;;24.98;13.70;;;4.00;99.90;;;;;;4952430;28;20216;-69
2022/01/16 06:56:11;;;;;;;24.35;14.10;;;4.00;99.90;;;;;;4951987;28;20325;-69
2022/01/16 06:58:38;;;;;;;31.77;15.25;;;4.00;99.90;;;;;;4951669;28;20900;-70
2022/01/16 07:01:06;;;;;;;20.08;13.73;;;4.00;99.90;;;;;;4950975;28;20233;-70
2022/01/16 07:03:33;;;;;;;22.98;15.35;;;4.00;99.90;;;;;;4956247;28;20217;-71
2022/01/16 07:06:00;;;;;;;27.08;15.68;;;4.00;99.90;;;;;;4943082;28;20205;-70
2022/01/16 07:08:27;;;;;;;24.52;14.38;;;4.00;99.90;;;;;;4954981;28;20228;-71
2022/01/16 07:10:55;;;;;;;24.95;15.07;;;4.00;99.90;;;;;;4944160;28;20198;-70
2022/01/16 07:13:22;;;;;;;28.90;16.27;;;4.00;99.90;;;;;;4937214;29;20643;-70
2022/01/16 07:15:49;;;;;;;33.60;17.75;;;4.00;99.90;;;;;;4936975;29;20318;-69
2022/01/16 07:18:17;;;;;;;30.05;16.17;;;4.00;99.90;;;;;;4954427;29;20267;-69
2022/01/16 07:20:44;;;;;;;31.63;14.60;;;4.00;99.90;;;;;;4938883;28;20221;-70
2022/01/16 07:23:11;;;;;;;28.63;16.83;;;4.00;99.90;;;;;;4953672;29;20259;-70
2022/01/16 07:25:38;;;;;;;29.67;15.20;;;4.00;99.90;;;;;;4947458;28;20260;-70
2022/01/16 07:28:05;;;;;;;35.28;16.95;;;4.00;99.90;;;;;;4937950;29;20817;-69
2022/01/16 07:30:32;;;;;;;28.52;15.77;;;4.00;99.90;;;;;;4951016;29;20217;-69
2022/01/16 07:32:59;;;;;;;32.55;17.27;;;4.00;99.90;;;;;;4941711;28;20257;-69
2022/01/16 07:35:27;;;;;;;37.20;16.77;;;4.00;99.90;;;;;;4936346;29;20210;-69
2022/01/16 07:37:54;;;;;;;30.77;17.75;;;4.00;99.90;;;;;;4941902;28;20225;-70
2022/01/16 07:40:21;;;;;;;37.33;19.40;;;4.00;99.90;;;;;;4948803;29;20248;-70
2022/01/16 07:42:48;;;;;;;33.28;19.27;;;4.00;99.90;;;;;;4945173;28;20245;-70
2022/01/16 07:45:15;;;;;;;29.08;16.80;;;4.00;99.90;;;;;;4955087;28;20228;-68
2022/01/16 07:47:41;;;;;;;33.47;16.90;;;4.00;99.90;;;;;;4944935;28;20225;-68
2022/01/16 07:50:09;;;;;;;36.72;19.40;;;4.00;99.90;;;;;;4935683;29;20236;-68
2022/01/16 07:52:37;;;;;;;35.58;18.42;;;4.00;99.90;;;;;;4936198;29;20205;-68
2022/01/16 07:55:05;;;;;;;39.30;20.70;;;4.00;99.90;;;;;;4935751;29;20209;-68
2022/01/16 07:57:32;;;;;;;35.78;18.60;;;4.10;99.90;;;;;;4935752;29;20228;-68
2022/01/16 07:59:58;;;;;;;41.78;19.70;;;4.10;99.90;;;;;;4935051;29;20220;-68
2022/01/16 08:02:25;;;;;;;39.95;18.40;;;4.10;99.90;;;;;;4936072;29;20206;-68
2022/01/16 08:04:52;;;;;;;40.10;21.55;;;4.00;99.90;;;;;;4935673;29;20206;-69
2022/01/16 08:07:19;;;;;;;37.08;19.73;;;4.00;99.90;;;;;;4936061;29;20336;-69
2022/01/16 08:09:47;;;;;;;42.20;20.75;;;4.00;99.90;;;;;;4943743;28;20209;-69
2022/01/16 08:12:14;;;;;;;42.47;21.13;;;4.00;99.90;;;;;;4953081;28;20236;-68
2022/01/16 08:14:41;;;;;;;41.13;20.77;;;4.00;99.90;;;;;;4947065;29;20209;-69
2022/01/16 08:17:07;;;;;;;40.65;20.38;;;4.00;99.90;;;;;;4952343;28;20238;-68
2022/01/16 08:19:34;;;;;;;47.75;20.13;;;4.00;99.90;;;;;;4947452;28;20213;-67
2022/01/16 08:22:01;;;;;;;38.55;20.42;;;4.00;99.90;;;;;;4941415;29;20227;-67
2022/01/16 08:24:28;;;;;;;55.70;31.10;;;4.00;99.90;;;;;;4947288;28;20213;-68
2022/01/16 08:26:56;;;;;;;42.42;23.67;;;4.00;99.90;;;;;;4940133;29;20228;-68
2022/01/16 08:29:23;;;;;;;43.78;24.85;;;4.00;99.90;;;;;;4954152;28;20205;-69
2022/01/16 08:31:49;;;;;;;45.85;23.40;;;4.00;99.90;;;;;;4945854;28;20210;-67
2022/01/16 08:34:16;;;;;;;42.30;21.02;;;4.00;99.90;;;;;;4945293;28;20206;-67
2022/01/16 08:36:43;;;;;;;45.88;20.83;;;4.00;99.90;;;;;;4944959;28;20213;-67
2022/01/16 08:39:10;;;;;;;44.33;21.02;;;4.00;99.90;;;;;;4948711;28;20289;-68
2022/01/16 08:41:37;;;;;;;44.55;19.70;;;4.00;99.90;;;;;;4934865;29;20286;-68
2022/01/16 08:44:06;;;;;;;45.13;18.92;;;3.90;99.90;;;;;;4939438;29;20205;-68
2022/01/16 08:46:33;;;;;;;35.00;19.90;;;3.90;99.90;;;;;;4948428;28;20202;-68
2022/01/16 08:49:00;;;;;;;36.78;18.95;;;3.90;99.90;;;;;;4938145;28;20260;-68
2022/01/16 08:51:27;;;;;;;38.30;18.58;;;3.90;99.90;;;;;;4948391;29;20205;-68
2022/01/16 08:53:54;;;;;;;39.38;19.83;;;3.90;99.90;;;;;;4947830;28;20473;-70
2022/01/16 08:56:21;;;;;;;43.40;22.00;;;3.90;99.90;;;;;;4949590;29;20551;-69
2022/01/16 08:58:48;;;;;;;39.05;19.45;;;3.90;99.90;;;;;;4944125;28;20218;-69
2022/01/16 09:01:16;;;;;;;43.30;21.35;;;3.90;99.90;;;;;;4934722;29;20234;-69
2022/01/16 09:03:43;;;;;;;40.83;19.00;;;3.90;99.90;;;;;;4935103;29;20202;-69
2022/01/16 09:06:09;;;;;;;37.63;18.05;;;3.90;99.90;;;;;;4935002;29;20733;-68
2022/01/16 09:08:36;;;;;;;47.95;21.23;;;3.90;99.90;;;;;;4943461;29;20324;-69
2022/01/16 09:11:04;;;;;;;43.40;20.50;;;3.90;99.90;;;;;;4952955;28;20204;-69
2022/01/16 09:13:31;;;;;;;36.53;19.25;;;3.90;99.90;;;;;;4947042;28;20205;-67
2022/01/16 09:15:58;;;;;;;44.10;20.08;;;3.90;99.90;;;;;;4943764;29;20301;-68
2022/01/16 09:18:27;;;;;;;39.20;20.10;;;3.90;99.90;;;;;;4946089;28;20310;-69
2022/01/16 09:20:56;;;;;;;36.58;18.92;;;3.90;99.90;;;;;;4948182;28;20221;-69
2022/01/16 09:23:22;;;;;;;42.30;20.13;;;3.90;99.90;;;;;;4951067;28;20205;-71
2022/01/16 09:25:49;;;;;;;36.47;19.30;;;3.90;99.90;;;;;;4952630;28;20217;-69
2022/01/16 09:28:16;;;;;;;49.17;21.35;;;3.90;99.90;;;;;;4950902;28;20236;-69
2022/01/16 09:30:43;;;;;;;46.35;20.70;;;3.90;99.90;;;;;;4952402;28;20228;-70
2022/01/16 09:33:10;;;;;;;41.28;18.70;;;4.00;99.90;;;;;;4940901;29;20201;-72
2022/01/16 09:35:39;;;;;;;37.25;19.02;;;4.00;99.90;;;;;;4964285;28;20528;-70
2022/01/16 09:38:07;;;;;;;61.97;26.67;;;4.00;99.90;;;;;;4954495;28;20536;-69
2022/01/16 09:40:35;;;;;;;40.25;20.58;;;4.00;99.90;;;;;;4961256;29;20237;-69
2022/01/16 09:43:03;;;;;;;48.92;21.15;;;4.10;99.90;;;;;;4950101;28;20221;-70
2022/01/16 09:45:30;;;;;;;50.58;22.00;;;4.10;99.90;;;;;;4934215;29;20705;-69
2022/01/16 09:47:57;;;;;;;44.80;20.40;;;4.10;99.90;;;;;;4939494;29;20229;-69
2022/01/16 09:50:26;;;;;;;46.28;19.50;;;4.10;99.90;;;;;;4948257;28;20696;-69
2022/01/16 09:52:55;;;;;;;40.85;19.52;;;4.10;99.90;;;;;;4941127;29;20209;-69
2022/01/16 09:55:22;;;;;;;43.35;20.83;;;4.10;99.90;;;;;;4950576;28;20204;-70
2022/01/16 09:57:50;;;;;;;44.75;21.27;;;4.10;99.90;;;;;;4934369;29;20229;-69
2022/01/16 10:00:20;;;;;;;39.78;21.13;;;4.10;99.90;;;;;;4941310;28;20300;-69
2022/01/16 10:02:46;;;;;;;41.45;21.15;;;4.10;99.90;;;;;;4939634;28;20606;-67
2022/01/16 10:05:26;;;;;;;46.33;22.38;;;4.10;99.90;;;;;;4933393;29;20649;-70
2022/01/16 10:07:55;;;;;;;37.65;18.70;;;4.10;99.90;;;;;;4935090;29;20230;-69
2022/01/16 10:10:26;;;;;;;41.72;20.08;;;4.10;99.90;;;;;;4949466;28;20666;-69
2022/01/16 10:12:55;;;;;;;53.50;21.10;;;4.10;99.90;;;;;;4942448;28;20206;-69
2022/01/16 10:15:23;;;;;;;49.35;21.42;;;4.10;99.90;;;;;;4936575;29;20307;-70
2022/01/16 10:17:53;;;;;;;46.55;19.42;;;4.10;99.90;;;;;;4935673;29;20229;-69
2022/01/16 10:20:20;;;;;;;45.80;21.83;;;4.10;99.90;;;;;;4947242;28;20546;-70
2022/01/16 10:22:48;;;;;;;50.83;23.05;;;4.10;99.90;;;;;;4949664;28;20707;-70
2022/01/16 10:25:34;;;;;;;44.53;21.70;;;4.10;99.90;;;;;;4935275;28;20212;-70
2022/01/16 10:28:03;;;;;;;38.78;20.45;;;4.10;99.90;;;;;;4940056;29;20244;-69
2022/01/16 10:30:40;;;;;;;54.35;24.67;;;4.20;99.90;;;;;;4937319;28;20218;-70
2022/01/16 10:33:11;;;;;;;46.05;21.30;;;4.20;99.90;;;;;;4943786;28;20299;-70
2022/01/16 10:35:38;;;;;;;43.47;20.02;;;4.20;99.90;;;;;;4944883;29;20284;-70
2022/01/16 10:38:08;;;;;;;61.50;32.28;;;4.20;99.90;;;;;;4943642;29;20312;-69
2022/01/16 10:40:38;;;;;;;57.15;22.90;;;4.20;99.90;;;;;;4939611;28;20257;-68
2022/01/16 10:43:13;;;;;;;54.05;25.40;;;4.30;99.90;;;;;;4944445;28;20631;-68
2022/01/16 10:45:41;;;;;;;46.72;23.70;;;4.20;99.90;;;;;;4933418;29;20201;-70
2022/01/16 10:48:08;;;;;;;44.47;24.15;;;4.30;99.90;;;;;;4937001;28;20253;-68
2022/01/16 10:50:37;;;;;;;40.72;21.13;;;4.20;99.90;;;;;;4947740;29;20557;-71
2022/01/16 10:53:05;;;;;;;46.70;23.20;;;4.30;99.90;;;;;;4935407;29;20206;-69
2022/01/16 10:55:35;;;;;;;41.13;21.10;;;4.30;99.90;;;;;;4930896;29;20563;-69
2022/01/16 10:58:06;;;;;;;38.22;19.92;;;4.30;99.90;;;;;;4933712;29;20229;-69
2022/01/16 11:00:34;;;;;;;40.33;20.80;;;4.30;99.90;;;;;;4938049;28;20214;-70
2022/01/16 11:03:04;;;;;;;41.72;19.33;;;4.30;99.90;;;;;;4943048;28;20234;-69
2022/01/16 11:05:35;;;;;;;42.88;19.58;;;4.30;99.90;;;;;;4940173;29;20217;-69
2022/01/16 11:08:04;;;;;;;40.47;19.05;;;4.30;99.90;;;;;;4931605;29;20324;-69
2022/01/16 11:10:33;;;;;;;40.72;20.63;;;4.30;99.90;;;;;;4937617;29;20259;-69
2022/01/16 11:13:02;;;;;;;42.72;21.60;;;4.30;99.90;;;;;;4946416;29;20216;-69
2022/01/16 11:15:31;;;;;;;40.58;18.40;;;4.30;99.90;;;;;;4948955;28;20209;-69
2022/01/16 11:17:58;;;;;;;39.97;18.73;;;4.40;99.90;;;;;;4934534;29;20222;-69
2022/01/16 11:20:32;;;;;;;42.20;22.80;;;4.40;99.90;;;;;;4933222;28;20465;-70
2022/01/16 11:23:05;;;;;;;49.10;21.35;;;4.40;99.90;;;;;;4940289;29;20251;-69
2022/01/16 11:25:34;;;;;;;41.65;21.35;;;4.40;99.90;;;;;;4950011;28;20606;-69
2022/01/16 11:28:04;;;;;;;33.97;17.17;;;4.40;99.90;;;;;;4932324;29;20241;-69
2022/01/16 11:30:35;;;;;;;43.85;17.95;;;4.40;99.90;;;;;;4947730;29;20627;-69
2022/01/16 11:33:02;;;;;;;36.13;19.50;;;4.50;99.90;;;;;;4951240;28;20539;-69
2022/01/16 11:35:30;;;;;;;39.80;18.95;;;4.50;99.90;;;;;;4950779;28;20215;-69
2022/01/16 11:40:42;;;;;;;37.75;18.95;;;4.50;99.90;;;;;;4956142;28;20318;-67
2022/01/16 11:43:16;;;;;;;44.17;21.05;;;4.50;99.90;;;;;;4970322;28;20254;-68
2022/01/16 11:45:50;;;;;;;36.10;17.17;;;4.50;99.90;;;;;;4970320;28;20700;-67
2022/01/16 11:48:39;;;;;;;33.78;16.70;;;4.50;99.90;;;;;;4953746;28;20237;-68
2022/01/16 11:51:26;;;;;;;32.83;15.07;;;4.60;99.90;;;;;;4964288;28;20201;-68
2022/01/16 11:54:15;;;;;;;26.85;15.52;;;4.50;99.90;;;;;;4972469;28;20700;-68
2022/01/16 11:57:02;;;;;;;28.02;14.77;;;4.60;99.90;;;;;;4971862;28;20205;-69
2022/01/16 11:59:38;;;;;;;28.38;13.85;;;4.50;99.90;;;;;;4975393;28;20229;-69
2022/01/16 12:02:24;;;;;;;30.08;15.50;;;4.60;99.90;;;;;;4971232;28;20228;-69
2022/01/16 12:05:03;;;;;;;31.58;16.85;;;4.60;99.90;;;;;;4959328;28;20202;-70
2022/01/16 12:07:51;;;;;;;24.80;14.32;;;4.60;99.90;;;;;;4971314;28;20205;-69
2022/01/16 12:10:42;;;;;;;24.77;13.60;;;4.60;99.90;;;;;;4972647;28;20229;-69
2022/01/16 12:13:58;;;;;;;29.95;14.88;;;4.60;99.90;;;;;;4970859;28;20205;-68
2022/01/16 12:16:47;;;;;;;33.70;16.50;;;4.60;99.90;;;;;;4969360;28;20201;-69
2022/01/16 12:19:36;;;;;;;26.23;13.75;;;4.60;99.90;;;;;;4951456;28;20308;-68
2022/01/16 12:22:04;;;;;;;22.77;13.55;;;4.60;99.90;;;;;;4966488;28;20328;-68
2022/01/16 12:24:35;;;;;;;27.33;15.13;;;4.70;99.90;;;;;;4964392;28;20216;-68
2022/01/16 12:27:22;;;;;;;26.83;14.23;;;4.70;99.90;;;;;;4972971;28;20335;-67
2022/01/16 12:30:26;;;;;;;28.67;15.30;;;4.70;99.90;;;;;;4972344;28;20231;-68
2022/01/16 12:32:55;;;;;;;22.63;13.10;;;4.70;99.90;;;;;;4972555;28;20208;-68
2022/01/16 12:36:12;;;;;;;25.45;14.15;;;4.70;99.90;;;;;;4973566;28;20208;-67
2022/01/16 12:39:03;;;;;;;29.85;16.23;;;4.70;99.90;;;;;;4973549;28;20243;-68
2022/01/16 12:41:34;;;;;;;23.20;14.65;;;4.70;99.90;;;;;;4966888;28;20236;-70
2022/01/16 12:44:03;;;;;;;28.23;15.35;;;4.70;99.90;;;;;;4961057;28;20784;-69
2022/01/16 12:46:33;;;;;;;36.65;17.48;;;4.70;99.90;;;;;;4956620;28;20302;-69
2022/01/16 12:49:03;;;;;;;28.98;15.30;;;4.80;99.90;;;;;;4965156;28;20236;-69
2022/01/16 12:51:32;;;;;;;29.33;14.90;;;4.80;99.90;;;;;;4954371;28;20386;-69
2022/01/16 12:54:04;;;;;;;25.40;17.20;;;4.70;99.90;;;;;;4954881;28;20666;-69
2022/01/16 12:56:34;;;;;;;31.10;16.17;;;4.80;99.90;;;;;;4966064;28;20343;-69
2022/01/16 12:59:11;;;;;;;29.02;18.27;;;4.80;99.90;;;;;;4972589;28;20256;-69
2022/01/16 13:01:43;;;;;;;32.50;16.70;;;4.80;99.90;;;;;;4971152;28;20713;-69
2022/01/16 13:04:19;;;;;;;34.13;16.88;;;4.80;99.90;;;;;;4972999;28;20646;-68
2022/01/16 13:06:45;;;;;;;33.85;17.35;;;4.80;99.90;;;;;;4962556;28;20587;-69
2022/01/16 13:09:13;;;;;;;34.97;18.48;;;4.80;99.90;;;;;;4957819;28;20225;-69
2022/01/16 13:11:42;;;;;;;34.40;17.73;;;4.80;99.90;;;;;;4955962;28;20613;-68
2022/01/16 13:14:12;;;;;;;44.58;20.90;;;4.90;99.90;;;;;;4972975;28;20208;-69
2022/01/16 13:16:41;;;;;;;40.22;19.98;;;4.90;99.90;;;;;;4960879;28;20205;-68
2022/01/16 13:19:11;;;;;;;39.08;18.52;;;4.90;99.90;;;;;;4953646;28;20240;-68
2022/01/16 13:22:05;;;;;;;40.72;19.95;;;4.90;99.90;;;;;;4961092;28;20267;-69
2022/01/16 13:24:42;;;;;;;40.22;19.65;;;4.90;99.90;;;;;;4959289;28;20216;-68
2022/01/16 13:27:11;;;;;;;35.60;18.77;;;4.90;99.90;;;;;;4961423;28;20197;-68
2022/01/16 13:29:40;;;;;;;37.88;19.30;;;4.90;99.90;;;;;;4967888;28;20609;-70
2022/01/16 13:32:09;;;;;;;40.10;21.20;;;4.90;99.90;;;;;;4964565;28;20331;-69
2022/01/16 13:34:40;;;;;;;41.90;21.80;;;4.90;99.90;;;;;;4970557;28;20204;-68
2022/01/16 13:37:08;;;;;;;42.75;21.70;;;4.90;99.90;;;;;;4955197;28;20208;-69
2022/01/16 13:39:37;;;;;;;48.35;21.70;;;5.00;99.90;;;;;;4953103;28;20565;-68
2022/01/16 13:42:29;;;;;;;52.63;22.63;;;5.00;99.90;;;;;;4964124;28;20232;-68
2022/01/16 13:45:30;;;;;;;51.40;23.58;;;5.00;99.90;;;;;;4962007;28;20200;-69
2022/01/16 13:48:00;;;;;;;52.35;26.25;;;5.10;99.90;;;;;;4968363;28;20558;-69
2022/01/16 13:50:29;;;;;;;46.25;24.55;;;5.10;99.90;;;;;;4971993;28;20706;-69
2022/01/16 13:52:58;;;;;;;56.67;26.38;;;5.10;99.90;;;;;;4960913;28;20658;-68
2022/01/16 13:55:28;;;;;;;59.97;27.73;;;5.10;99.90;;;;;;4963216;28;20555;-68
2022/01/16 13:57:58;;;;;;;56.97;28.45;;;5.20;99.90;;;;;;4953532;28;20236;-68
2022/01/16 14:00:31;;;;;;;64.10;28.10;;;5.20;99.90;;;;;;4954293;28;20232;-68
2022/01/16 14:03:11;;;;;;;62.28;30.13;;;5.30;99.90;;;;;;4959087;28;20229;-68
2022/01/16 14:05:42;;;;;;;70.15;37.35;;;5.30;99.90;;;;;;4952598;28;20766;-68
2022/01/16 14:08:24;;;;;;;50.95;26.85;;;5.30;99.90;;;;;;4968483;28;20397;-68
2022/01/16 14:10:51;;;;;;;53.63;26.95;;;5.40;99.90;;;;;;4957682;28;20209;-68
2022/01/16 14:13:20;;;;;;;64.45;27.95;;;5.40;99.90;;;;;;4956772;28;20193;-68
2022/01/16 14:16:05;;;;;;;57.13;27.83;;;5.40;99.90;;;;;;4972356;28;20211;-68
2022/01/16 14:18:42;;;;;;;55.17;27.83;;;5.40;99.90;;;;;;4971854;28;20303;-68
2022/01/16 14:23:53;;;;;;;54.05;27.85;;;5.40;99.90;;;;;;4953333;28;20564;-68
2022/01/16 14:26:20;;;;;;;47.10;27.15;;;5.40;99.90;;;;;;4953131;28;20216;-68
2022/01/16 14:28:48;;;;;;;58.85;28.85;;;5.40;99.90;;;;;;4968853;28;20275;-68
2022/01/16 14:31:15;;;;;;;49.72;26.92;;;5.40;99.90;;;;;;4964235;28;20287;-68
2022/01/16 14:33:41;;;;;;;56.83;25.45;;;5.40;99.90;;;;;;4970025;28;20207;-68
2022/01/16 14:36:08;;;;;;;61.35;27.70;;;5.40;99.90;;;;;;4971096;28;20209;-68
2022/01/16 14:38:38;;;;;;;61.25;28.25;;;5.50;99.90;;;;;;4971647;28;20278;-68
2022/01/16 14:41:05;;;;;;;62.40;27.55;;;5.50;99.90;;;;;;4968467;28;20288;-68
2022/01/16 14:43:50;;;;;;;58.53;27.83;;;5.50;99.90;;;;;;4971302;28;20567;-68
2022/01/16 14:46:19;;;;;;;55.80;27.73;;;5.50;99.90;;;;;;4970602;28;20374;-68
2022/01/16 14:48:46;;;;;;;60.92;27.27;;;5.50;99.90;;;;;;4954454;28;20229;-68
2022/01/16 14:51:14;;;;;;;62.35;30.58;;;5.50;99.90;;;;;;4955665;28;20209;-68
2022/01/16 14:53:40;;;;;;;62.50;27.30;;;5.50;99.90;;;;;;4968938;28;20200;-69
2022/01/16 14:56:07;;;;;;;64.18;30.45;;;5.50;99.90;;;;;;4971471;28;20233;-68
2022/01/16 14:58:34;;;;;;;60.65;28.88;;;5.60;99.90;;;;;;4971367;28;20744;-68
2022/01/16 15:01:00;;;;;;;60.05;28.05;;;5.60;99.90;;;;;;4970255;28;20210;-68
2022/01/16 15:03:28;;;;;;;58.90;29.80;;;5.60;99.90;;;;;;4965281;28;20670;-68
2022/01/16 15:05:56;;;;;;;60.80;30.38;;;5.60;99.90;;;;;;4963833;28;20216;-68
2022/01/16 15:08:23;;;;;;;55.95;27.73;;;5.60;99.90;;;;;;4962325;28;20229;-69
2022/01/16 15:10:50;;;;;;;54.17;28.58;;;5.60;99.90;;;;;;4964774;28;20278;-68
2022/01/16 15:13:17;;;;;;;62.83;29.35;;;5.60;99.90;;;;;;4968222;28;20205;-68
2022/01/16 15:15:44;;;;;;;62.22;28.48;;;5.60;99.90;;;;;;4968704;28;20224;-69
2022/01/16 15:18:12;;;;;;;63.33;31.25;;;5.70;99.90;;;;;;4967235;28;20220;-68
2022/01/16 15:20:41;;;;;;;59.75;27.77;;;5.70;99.90;;;;;;4968836;28;20364;-69
2022/01/16 15:23:07;;;;;;;69.30;31.35;;;5.70;99.90;;;;;;4972486;28;20228;-69
2022/01/16 15:25:34;;;;;;;71.60;32.17;;;5.70;99.90;;;;;;4973377;28;20212;-68
2022/01/16 15:28:01;;;;;;;61.15;29.65;;;5.70;99.90;;;;;;4971266;28;20260;-69
2022/01/16 15:30:28;;;;;;;67.28;33.53;;;5.70;99.90;;;;;;4973916;28;20653;-69
2022/01/16 15:32:54;;;;;;;57.72;29.30;;;5.80;99.90;;;;;;4969901;28;20205;-68
2022/01/16 15:35:22;;;;;;;54.65;28.30;;;5.80;99.90;;;;;;4974034;28;20207;-69
2022/01/16 15:37:52;;;;;;;60.35;29.80;;;5.80;99.90;;;;;;4973750;28;20209;-68
2022/01/16 15:40:19;;;;;;;60.10;30.05;;;5.80;99.90;;;;;;4973135;28;20245;-68
2022/01/16 15:42:47;;;;;;;64.72;31.77;;;5.80;99.90;;;;;;4972949;28;20224;-68
2022/01/16 15:45:15;;;;;;;61.05;31.98;;;5.80;99.90;;;;;;4966166;28;20201;-69
2022/01/16 15:47:44;;;;;;;55.22;29.63;;;5.80;99.90;;;;;;4973900;28;20204;-69
2022/01/16 15:50:11;;;;;;;63.28;31.65;;;5.80;99.90;;;;;;4964971;28;20308;-69
2022/01/16 15:52:38;;;;;;;54.45;30.63;;;5.80;99.90;;;;;;4961560;28;20204;-69
2022/01/16 15:55:07;;;;;;;66.20;31.63;;;5.80;99.90;;;;;;4974438;28;20223;-68
2022/01/16 15:57:34;;;;;;;72.13;33.63;;;5.90;99.90;;;;;;4972457;28;20219;-69
2022/01/16 16:00:03;;;;;;;55.90;30.27;;;5.80;99.90;;;;;;4967818;28;20305;-68
2022/01/16 16:02:29;;;;;;;52.65;29.70;;;5.90;99.90;;;;;;4961545;28;20781;-69
2022/01/16 16:04:56;;;;;;;55.25;29.67;;;5.90;99.90;;;;;;4975594;28;20216;-69
2022/01/16 16:07:23;;;;;;;52.45;28.30;;;5.90;99.90;;;;;;4978578;28;20205;-69
2022/01/16 16:09:56;;;;;;;56.33;30.95;;;5.90;99.90;;;;;;4969764;28;20320;-69
2022/01/16 16:12:25;;;;;;;60.67;27.83;;;5.90;99.90;;;;;;4973513;28;20237;-70
2022/01/16 16:14:52;;;;;;;56.72;29.33;;;6.00;99.90;;;;;;4971724;28;20642;-69
2022/01/16 16:17:19;;;;;;;63.95;30.42;;;6.00;99.90;;;;;;4970492;28;20231;-69
2022/01/16 16:19:46;;;;;;;59.28;30.20;;;6.00;99.90;;;;;;4970778;28;20308;-69
2022/01/16 16:22:12;;;;;;;52.10;29.60;;;6.00;99.90;;;;;;4968503;28;20303;-69
2022/01/16 16:24:41;;;;;;;56.20;33.63;;;6.00;99.90;;;;;;4968610;28;20224;-68
2022/01/16 16:27:07;;;;;;;74.57;39.88;;;6.00;99.90;;;;;;4965252;28;20290;-68
2022/01/16 16:29:36;;;;;;;58.22;31.67;;;6.00;99.90;;;;;;4967171;28;20235;-68
2022/01/16 16:32:04;;;;;;;50.60;29.48;;;6.00;99.90;;;;;;4974446;28;20235;-69
2022/01/16 16:34:31;;;;;;;48.40;28.90;;;6.00;99.90;;;;;;4965342;28;20200;-71
2022/01/16 16:36:58;;;;;;;54.15;29.05;;;6.00;99.90;;;;;;4968196;28;20303;-68
2022/01/16 16:39:24;;;;;;;43.15;25.77;;;6.00;99.90;;;;;;4969508;28;20339;-68
2022/01/16 16:41:53;;;;;;;48.72;28.42;;;6.00;99.90;;;;;;4970124;28;20216;-69
2022/01/16 16:44:25;;;;;;;45.40;25.75;;;6.00;99.90;;;;;;4965917;28;20303;-69
2022/01/16 16:46:53;;;;;;;47.53;25.58;;;6.10;99.90;;;;;;4969517;28;20266;-68
2022/01/16 16:49:20;;;;;;;43.92;23.42;;;6.10;99.90;;;;;;4968653;28;20232;-69
2022/01/16 16:51:47;;;;;;;38.00;23.90;;;6.10;99.90;;;;;;4967618;28;20649;-69
2022/01/16 16:54:14;;;;;;;37.85;22.00;;;6.10;99.90;;;;;;4969266;28;20201;-70
2022/01/16 16:56:41;;;;;;;40.25;22.58;;;6.10;99.90;;;;;;4969680;28;20252;-70
2022/01/16 16:59:08;;;;;;;38.72;23.77;;;6.10;99.90;;;;;;4972736;28;20747;-69
2022/01/16 17:01:34;;;;;;;39.45;23.85;;;6.20;99.90;;;;;;4970822;28;20223;-70
2022/01/16 17:04:03;;;;;;;38.55;24.77;;;6.10;99.90;;;;;;4970311;28;20235;-69
2022/01/16 17:06:29;;;;;;;33.05;21.50;;;6.20;99.90;;;;;;4969219;28;20664;-68
2022/01/16 17:08:56;;;;;;;41.75;25.33;;;6.20;99.90;;;;;;4967471;28;20232;-68
2022/01/16 17:11:23;;;;;;;37.50;24.05;;;6.20;99.90;;;;;;4964107;28;20604;-68
2022/01/16 17:13:51;;;;;;;37.35;21.75;;;6.20;99.90;;;;;;4967930;28;20201;-70
2022/01/16 17:16:19;;;;;;;40.65;27.15;;;6.20;99.90;;;;;;4966587;28;20224;-69
2022/01/16 17:18:50;;;;;;;33.25;23.75;;;6.20;99.90;;;;;;4963941;28;20239;-69
2022/01/16 17:21:18;;;;;;;40.83;23.90;;;6.30;99.90;;;;;;4970398;28;20201;-68
2022/01/16 17:23:46;;;;;;;41.35;25.27;;;6.30;99.90;;;;;;4967684;28;20251;-68
2022/01/16 17:26:13;;;;;;;33.22;23.35;;;6.30;99.90;;;;;;4971894;28;20205;-68
2022/01/16 17:28:40;;;;;;;39.42;25.25;;;6.20;99.90;;;;;;4967241;28;20232;-69
2022/01/16 17:31:07;;;;;;;42.88;27.13;;;6.30;99.90;;;;;;4966079;28;20204;-67
2022/01/16 17:33:33;;;;;;;40.25;23.80;;;6.30;99.90;;;;;;4971576;28;20292;-69
2022/01/16 17:36:00;;;;;;;36.88;23.58;;;6.30;99.90;;;;;;4971478;28;20257;-68
2022/01/16 17:38:28;;;;;;;46.83;27.80;;;6.30;99.90;;;;;;4975171;28;20228;-68
2022/01/16 17:40:55;;;;;;;37.08;25.52;;;6.30;99.90;;;;;;4985626;28;20207;-68
2022/01/16 17:43:21;;;;;;;42.15;24.48;;;6.30;99.90;;;;;;4971849;28;20279;-67
2022/01/16 17:45:48;;;;;;;42.80;23.83;;;6.30;99.90;;;;;;4971585;28;20284;-71
2022/01/16 17:48:16;;;;;;;39.47;22.95;;;6.30;99.90;;;;;;4969623;28;20539;-69
2022/01/16 17:50:43;;;;;;;37.60;23.60;;;6.30;99.90;;;;;;4956228;28;20209;-69
2022/01/16 17:53:10;;;;;;;33.92;23.40;;;6.30;99.90;;;;;;4964504;28;20233;-69
2022/01/16 17:55:38;;;;;;;34.97;23.92;;;6.30;99.90;;;;;;4967125;28;20215;-71